sensor_id;sensor_type;location;lat;lon;timestamp;P1;durP1;ratioP1;P2;durP2;ratioP2
18623;SDS011;9441;51.420;7.036;2023-02-23T00:00:15;87.00;;;41.50;;
18623;SDS011;9441;51.420;7.036;2023-02-23T00:01:20;92.40;;;44.70;;
18623;SDS011;9441;51.420;7.036;2023-02-23T00:02:23;88.53;;;42.03;;
18623;SDS011;9441;51.420;7.036;2023-02-23T00:03:25;87.37;;;43.43;;
18623;SDS011;9441;51.420;7.036;2023-02-23T00:04:27;89.30;;;43.97;;
18623;SDS011;9441;51.420;7.036;2023-02-23T00:05:29;88.93;;;42.70;;
18623;SDS011;9441;51.420;7.036;2023-02-23T00:06:34;86.93;;;42.37;;
18623;SDS011;9441;51.420;7.036;2023-02-23T00:07:35;92.40;;;43.50;;
18623;SDS011;9441;51.420;7.036;2023-02-23T00:08:38;81.17;;;41.70;;
18623;SDS011;9441;51.420;7.036;2023-02-23T00:09:39;88.60;;;42.50;;
18623;SDS011;9441;51.420;7.036;2023-02-23T00:10:41;84.23;;;42.27;;
18623;SDS011;9441;51.420;7.036;2023-02-23T00:11:43;90.50;;;43.10;;
18623;SDS011;9441;51.420;7.036;2023-02-23T00:12:47;92.80;;;44.07;;
18623;SDS011;9441;51.420;7.036;2023-02-23T00:13:49;86.60;;;41.67;;
18623;SDS011;9441;51.420;7.036;2023-02-23T00:14:51;86.30;;;41.67;;
18623;SDS011;9441;51.420;7.036;2023-02-23T00:15:53;96.70;;;43.70;;
18623;SDS011;9441;51.420;7.036;2023-02-23T00:16:56;92.37;;;42.93;;
18623;SDS011;9441;51.420;7.036;2023-02-23T00:17:59;93.43;;;44.30;;
18623;SDS011;9441;51.420;7.036;2023-02-23T00:19:03;89.57;;;42.40;;
18623;SDS011;9441;51.420;7.036;2023-02-23T00:20:08;88.77;;;42.47;;
18623;SDS011;9441;51.420;7.036;2023-02-23T00:21:11;101.63;;;44.70;;
18623;SDS011;9441;51.420;7.036;2023-02-23T00:22:15;84.30;;;42.40;;
18623;SDS011;9441;51.420;7.036;2023-02-23T00:23:18;86.50;;;43.37;;
18623;SDS011;9441;51.420;7.036;2023-02-23T00:24:19;96.47;;;44.27;;
18623;SDS011;9441;51.420;7.036;2023-02-23T00:25:22;95.90;;;45.00;;
18623;SDS011;9441;51.420;7.036;2023-02-23T00:26:24;90.93;;;42.63;;
18623;SDS011;9441;51.420;7.036;2023-02-23T00:27:29;96.43;;;43.97;;
18623;SDS011;9441;51.420;7.036;2023-02-23T00:28:31;97.03;;;44.33;;
18623;SDS011;9441;51.420;7.036;2023-02-23T00:29:34;89.73;;;43.83;;
18623;SDS011;9441;51.420;7.036;2023-02-23T00:30:39;91.40;;;43.87;;
18623;SDS011;9441;51.420;7.036;2023-02-23T00:31:43;90.70;;;42.17;;
18623;SDS011;9441;51.420;7.036;2023-02-23T00:32:45;88.67;;;43.20;;
18623;SDS011;9441;51.420;7.036;2023-02-23T00:33:47;88.83;;;43.17;;
18623;SDS011;9441;51.420;7.036;2023-02-23T00:34:50;92.47;;;44.43;;
18623;SDS011;9441;51.420;7.036;2023-02-23T00:35:53;90.80;;;44.07;;
18623;SDS011;9441;51.420;7.036;2023-02-23T00:36:54;89.27;;;41.87;;
18623;SDS011;9441;51.420;7.036;2023-02-23T00:37:58;86.40;;;41.30;;
18623;SDS011;9441;51.420;7.036;2023-02-23T00:39:00;88.53;;;43.30;;
18623;SDS011;9441;51.420;7.036;2023-02-23T00:40:05;90.97;;;43.37;;
18623;SDS011;9441;51.420;7.036;2023-02-23T00:41:12;84.50;;;42.40;;
18623;SDS011;9441;51.420;7.036;2023-02-23T00:42:19;93.23;;;43.30;;
18623;SDS011;9441;51.420;7.036;2023-02-23T00:43:20;91.17;;;43.70;;
18623;SDS011;9441;51.420;7.036;2023-02-23T00:44:24;86.90;;;42.57;;
18623;SDS011;9441;51.420;7.036;2023-02-23T00:45:25;85.30;;;43.20;;
18623;SDS011;9441;51.420;7.036;2023-02-23T00:46:28;87.80;;;43.37;;
18623;SDS011;9441;51.420;7.036;2023-02-23T00:47:30;90.10;;;44.03;;
18623;SDS011;9441;51.420;7.036;2023-02-23T00:48:32;86.40;;;42.60;;
18623;SDS011;9441;51.420;7.036;2023-02-23T00:49:34;90.90;;;43.90;;
18623;SDS011;9441;51.420;7.036;2023-02-23T00:50:36;89.47;;;42.23;;
18623;SDS011;9441;51.420;7.036;2023-02-23T00:51:38;88.63;;;42.50;;
18623;SDS011;9441;51.420;7.036;2023-02-23T00:52:40;97.23;;;44.20;;
18623;SDS011;9441;51.420;7.036;2023-02-23T00:53:44;93.70;;;44.27;;
18623;SDS011;9441;51.420;7.036;2023-02-23T00:54:46;88.87;;;43.63;;
18623;SDS011;9441;51.420;7.036;2023-02-23T00:55:48;87.20;;;42.60;;
18623;SDS011;9441;51.420;7.036;2023-02-23T00:56:50;94.53;;;42.83;;
18623;SDS011;9441;51.420;7.036;2023-02-23T00:57:52;89.30;;;42.17;;
18623;SDS011;9441;51.420;7.036;2023-02-23T00:58:54;92.40;;;43.60;;
18623;SDS011;9441;51.420;7.036;2023-02-23T00:59:59;92.67;;;43.70;;
18623;SDS011;9441;51.420;7.036;2023-02-23T01:01:12;91.73;;;43.53;;
18623;SDS011;9441;51.420;7.036;2023-02-23T01:02:16;93.87;;;43.47;;
18623;SDS011;9441;51.420;7.036;2023-02-23T01:03:18;94.47;;;43.00;;
18623;SDS011;9441;51.420;7.036;2023-02-23T01:04:20;97.37;;;44.40;;
18623;SDS011;9441;51.420;7.036;2023-02-23T01:05:23;93.03;;;42.63;;
18623;SDS011;9441;51.420;7.036;2023-02-23T01:06:27;93.13;;;42.73;;
18623;SDS011;9441;51.420;7.036;2023-02-23T01:07:31;91.60;;;43.33;;
18623;SDS011;9441;51.420;7.036;2023-02-23T01:08:32;91.77;;;43.63;;
18623;SDS011;9441;51.420;7.036;2023-02-23T01:09:36;86.90;;;41.93;;
18623;SDS011;9441;51.420;7.036;2023-02-23T01:10:38;87.80;;;43.27;;
18623;SDS011;9441;51.420;7.036;2023-02-23T01:11:44;90.47;;;42.70;;
18623;SDS011;9441;51.420;7.036;2023-02-23T01:12:48;88.37;;;41.23;;
18623;SDS011;9441;51.420;7.036;2023-02-23T01:13:51;85.30;;;41.03;;
18623;SDS011;9441;51.420;7.036;2023-02-23T01:14:53;86.87;;;42.07;;
18623;SDS011;9441;51.420;7.036;2023-02-23T01:15:57;93.20;;;41.83;;
18623;SDS011;9441;51.420;7.036;2023-02-23T01:16:59;93.77;;;43.60;;
18623;SDS011;9441;51.420;7.036;2023-02-23T01:18:01;88.70;;;43.27;;
18623;SDS011;9441;51.420;7.036;2023-02-23T01:19:03;89.40;;;43.07;;
18623;SDS011;9441;51.420;7.036;2023-02-23T01:20:06;98.07;;;45.30;;
18623;SDS011;9441;51.420;7.036;2023-02-23T01:21:15;92.20;;;42.73;;
18623;SDS011;9441;51.420;7.036;2023-02-23T01:22:18;92.93;;;43.77;;
18623;SDS011;9441;51.420;7.036;2023-02-23T01:23:19;95.30;;;44.10;;
18623;SDS011;9441;51.420;7.036;2023-02-23T01:24:22;91.00;;;42.47;;
18623;SDS011;9441;51.420;7.036;2023-02-23T01:25:24;96.73;;;43.97;;
18623;SDS011;9441;51.420;7.036;2023-02-23T01:26:28;91.47;;;44.20;;
18623;SDS011;9441;51.420;7.036;2023-02-23T01:27:30;95.77;;;43.57;;
18623;SDS011;9441;51.420;7.036;2023-02-23T01:28:34;88.13;;;41.93;;
18623;SDS011;9441;51.420;7.036;2023-02-23T01:29:36;87.80;;;43.53;;
18623;SDS011;9441;51.420;7.036;2023-02-23T01:30:38;91.27;;;43.27;;
18623;SDS011;9441;51.420;7.036;2023-02-23T01:31:41;87.03;;;42.90;;
18623;SDS011;9441;51.420;7.036;2023-02-23T01:32:44;91.87;;;44.40;;
18623;SDS011;9441;51.420;7.036;2023-02-23T01:33:45;90.83;;;44.73;;
18623;SDS011;9441;51.420;7.036;2023-02-23T01:34:48;97.70;;;44.57;;
18623;SDS011;9441;51.420;7.036;2023-02-23T01:35:55;93.63;;;43.47;;
18623;SDS011;9441;51.420;7.036;2023-02-23T01:36:58;84.03;;;43.67;;
18623;SDS011;9441;51.420;7.036;2023-02-23T01:38:00;91.63;;;43.83;;
18623;SDS011;9441;51.420;7.036;2023-02-23T01:39:03;90.63;;;42.07;;
18623;SDS011;9441;51.420;7.036;2023-02-23T01:40:09;89.03;;;42.37;;
18623;SDS011;9441;51.420;7.036;2023-02-23T01:41:14;96.43;;;43.60;;
18623;SDS011;9441;51.420;7.036;2023-02-23T01:42:16;97.70;;;44.23;;
18623;SDS011;9441;51.420;7.036;2023-02-23T01:43:20;93.37;;;43.17;;
18623;SDS011;9441;51.420;7.036;2023-02-23T01:45:47;97.60;;;42.93;;
18623;SDS011;9441;51.420;7.036;2023-02-23T01:46:50;93.50;;;43.47;;
18623;SDS011;9441;51.420;7.036;2023-02-23T01:47:53;99.87;;;44.70;;
18623;SDS011;9441;51.420;7.036;2023-02-23T01:48:56;96.30;;;44.90;;
18623;SDS011;9441;51.420;7.036;2023-02-23T01:49:58;92.97;;;44.07;;
18623;SDS011;9441;51.420;7.036;2023-02-23T01:51:01;98.77;;;44.70;;
18623;SDS011;9441;51.420;7.036;2023-02-23T01:52:05;95.43;;;45.70;;
18623;SDS011;9441;51.420;7.036;2023-02-23T01:53:10;100.90;;;44.27;;
18623;SDS011;9441;51.420;7.036;2023-02-23T01:54:14;94.50;;;42.43;;
18623;SDS011;9441;51.420;7.036;2023-02-23T01:55:17;98.77;;;44.07;;
18623;SDS011;9441;51.420;7.036;2023-02-23T01:56:25;91.47;;;42.77;;
18623;SDS011;9441;51.420;7.036;2023-02-23T01:57:27;93.00;;;42.70;;
18623;SDS011;9441;51.420;7.036;2023-02-23T01:58:31;98.43;;;45.27;;
18623;SDS011;9441;51.420;7.036;2023-02-23T01:59:34;89.20;;;41.93;;
18623;SDS011;9441;51.420;7.036;2023-02-23T02:00:37;93.03;;;43.13;;
18623;SDS011;9441;51.420;7.036;2023-02-23T02:01:41;91.53;;;43.30;;
18623;SDS011;9441;51.420;7.036;2023-02-23T02:02:44;91.07;;;43.10;;
18623;SDS011;9441;51.420;7.036;2023-02-23T02:03:48;90.43;;;42.83;;
18623;SDS011;9441;51.420;7.036;2023-02-23T02:04:52;95.87;;;44.27;;
18623;SDS011;9441;51.420;7.036;2023-02-23T02:06:00;93.73;;;43.87;;
18623;SDS011;9441;51.420;7.036;2023-02-23T02:07:03;95.07;;;45.03;;
18623;SDS011;9441;51.420;7.036;2023-02-23T02:08:04;91.53;;;43.57;;
18623;SDS011;9441;51.420;7.036;2023-02-23T02:09:12;92.87;;;43.33;;
18623;SDS011;9441;51.420;7.036;2023-02-23T02:10:16;92.30;;;45.80;;
18623;SDS011;9441;51.420;7.036;2023-02-23T02:11:34;89.57;;;42.40;;
18623;SDS011;9441;51.420;7.036;2023-02-23T02:12:38;87.73;;;42.33;;
18623;SDS011;9441;51.420;7.036;2023-02-23T02:13:40;98.80;;;46.27;;
18623;SDS011;9441;51.420;7.036;2023-02-23T02:14:42;92.40;;;44.67;;
18623;SDS011;9441;51.420;7.036;2023-02-23T02:15:48;89.57;;;42.70;;
18623;SDS011;9441;51.420;7.036;2023-02-23T02:17:09;88.10;;;44.00;;
18623;SDS011;9441;51.420;7.036;2023-02-23T02:18:16;90.17;;;43.20;;
18623;SDS011;9441;51.420;7.036;2023-02-23T02:19:38;96.50;;;44.13;;
18623;SDS011;9441;51.420;7.036;2023-02-23T02:22:17;93.60;;;43.97;;
18623;SDS011;9441;51.420;7.036;2023-02-23T02:23:39;87.57;;;43.53;;
18623;SDS011;9441;51.420;7.036;2023-02-23T02:25:00;94.47;;;42.87;;
18623;SDS011;9441;51.420;7.036;2023-02-23T02:26:13;92.27;;;42.97;;
18623;SDS011;9441;51.420;7.036;2023-02-23T02:27:25;99.73;;;45.60;;
18623;SDS011;9441;51.420;7.036;2023-02-23T02:29:55;95.70;;;43.37;;
18623;SDS011;9441;51.420;7.036;2023-02-23T02:32:40;96.30;;;44.37;;
18623;SDS011;9441;51.420;7.036;2023-02-23T02:35:34;116.63;;;47.67;;
18623;SDS011;9441;51.420;7.036;2023-02-23T02:38:17;98.17;;;43.87;;
18623;SDS011;9441;51.420;7.036;2023-02-23T02:39:22;101.07;;;43.73;;
18623;SDS011;9441;51.420;7.036;2023-02-23T02:40:35;104.40;;;45.70;;
18623;SDS011;9441;51.420;7.036;2023-02-23T02:41:40;95.40;;;44.20;;
18623;SDS011;9441;51.420;7.036;2023-02-23T02:42:47;103.60;;;45.90;;
18623;SDS011;9441;51.420;7.036;2023-02-23T02:43:50;101.70;;;44.40;;
18623;SDS011;9441;51.420;7.036;2023-02-23T02:44:58;95.67;;;44.40;;
18623;SDS011;9441;51.420;7.036;2023-02-23T02:46:05;101.23;;;44.97;;
18623;SDS011;9441;51.420;7.036;2023-02-23T02:47:11;97.40;;;44.10;;
18623;SDS011;9441;51.420;7.036;2023-02-23T02:48:16;100.70;;;45.97;;
18623;SDS011;9441;51.420;7.036;2023-02-23T02:49:21;104.90;;;46.23;;
18623;SDS011;9441;51.420;7.036;2023-02-23T02:50:27;103.73;;;46.47;;
18623;SDS011;9441;51.420;7.036;2023-02-23T02:51:31;108.37;;;47.37;;
18623;SDS011;9441;51.420;7.036;2023-02-23T02:52:38;115.43;;;46.47;;
18623;SDS011;9441;51.420;7.036;2023-02-23T02:53:46;118.33;;;47.47;;
18623;SDS011;9441;51.420;7.036;2023-02-23T02:54:50;113.00;;;47.10;;
18623;SDS011;9441;51.420;7.036;2023-02-23T02:55:56;109.50;;;45.90;;
18623;SDS011;9441;51.420;7.036;2023-02-23T02:57:00;99.97;;;43.67;;
18623;SDS011;9441;51.420;7.036;2023-02-23T02:58:05;117.00;;;48.10;;
18623;SDS011;9441;51.420;7.036;2023-02-23T02:59:08;112.77;;;47.20;;
18623;SDS011;9441;51.420;7.036;2023-02-23T03:00:31;95.17;;;43.07;;
18623;SDS011;9441;51.420;7.036;2023-02-23T03:01:53;105.10;;;44.97;;
18623;SDS011;9441;51.420;7.036;2023-02-23T03:03:26;106.27;;;44.60;;
18623;SDS011;9441;51.420;7.036;2023-02-23T03:04:46;111.70;;;45.83;;
18623;SDS011;9441;51.420;7.036;2023-02-23T03:06:06;112.67;;;45.40;;
18623;SDS011;9441;51.420;7.036;2023-02-23T03:07:28;103.57;;;43.17;;
18623;SDS011;9441;51.420;7.036;2023-02-23T03:08:53;118.60;;;46.00;;
18623;SDS011;9441;51.420;7.036;2023-02-23T03:10:16;107.67;;;44.03;;
18623;SDS011;9441;51.420;7.036;2023-02-23T03:11:41;108.47;;;43.93;;
18623;SDS011;9441;51.420;7.036;2023-02-23T03:13:10;114.90;;;46.63;;
18623;SDS011;9441;51.420;7.036;2023-02-23T03:14:34;109.60;;;44.20;;
18623;SDS011;9441;51.420;7.036;2023-02-23T03:16:02;97.57;;;43.03;;
18623;SDS011;9441;51.420;7.036;2023-02-23T03:17:25;108.23;;;44.50;;
18623;SDS011;9441;51.420;7.036;2023-02-23T03:18:54;106.10;;;43.90;;
18623;SDS011;9441;51.420;7.036;2023-02-23T03:20:18;113.30;;;44.67;;
18623;SDS011;9441;51.420;7.036;2023-02-23T03:21:43;112.77;;;45.13;;
18623;SDS011;9441;51.420;7.036;2023-02-23T03:23:08;107.57;;;44.30;;
18623;SDS011;9441;51.420;7.036;2023-02-23T03:24:30;108.43;;;43.87;;
18623;SDS011;9441;51.420;7.036;2023-02-23T03:25:53;107.20;;;44.70;;
18623;SDS011;9441;51.420;7.036;2023-02-23T03:27:16;108.00;;;44.40;;
18623;SDS011;9441;51.420;7.036;2023-02-23T03:28:40;106.97;;;44.60;;
18623;SDS011;9441;51.420;7.036;2023-02-23T03:30:05;106.13;;;43.17;;
18623;SDS011;9441;51.420;7.036;2023-02-23T03:31:31;105.83;;;43.33;;
18623;SDS011;9441;51.420;7.036;2023-02-23T03:32:55;101.03;;;43.77;;
18623;SDS011;9441;51.420;7.036;2023-02-23T03:34:17;90.00;;;41.10;;
18623;SDS011;9441;51.420;7.036;2023-02-23T03:35:47;105.67;;;44.07;;
18623;SDS011;9441;51.420;7.036;2023-02-23T03:37:11;108.17;;;43.53;;
18623;SDS011;9441;51.420;7.036;2023-02-23T03:38:34;113.27;;;43.87;;
18623;SDS011;9441;51.420;7.036;2023-02-23T03:39:58;109.03;;;44.97;;
18623;SDS011;9441;51.420;7.036;2023-02-23T03:41:18;110.27;;;44.93;;
18623;SDS011;9441;51.420;7.036;2023-02-23T03:42:40;108.70;;;44.07;;
18623;SDS011;9441;51.420;7.036;2023-02-23T03:44:04;104.70;;;42.90;;
18623;SDS011;9441;51.420;7.036;2023-02-23T03:45:25;105.17;;;43.63;;
18623;SDS011;9441;51.420;7.036;2023-02-23T03:46:47;109.80;;;44.33;;
18623;SDS011;9441;51.420;7.036;2023-02-23T03:48:10;105.67;;;44.60;;
18623;SDS011;9441;51.420;7.036;2023-02-23T03:49:32;106.60;;;44.57;;
18623;SDS011;9441;51.420;7.036;2023-02-23T03:50:53;110.60;;;43.93;;
18623;SDS011;9441;51.420;7.036;2023-02-23T03:52:13;104.03;;;42.73;;
18623;SDS011;9441;51.420;7.036;2023-02-23T03:53:37;113.43;;;44.90;;
18623;SDS011;9441;51.420;7.036;2023-02-23T03:55:01;112.23;;;46.27;;
18623;SDS011;9441;51.420;7.036;2023-02-23T03:56:22;107.73;;;45.03;;
18623;SDS011;9441;51.420;7.036;2023-02-23T03:57:44;102.07;;;43.70;;
18623;SDS011;9441;51.420;7.036;2023-02-23T03:59:05;103.27;;;44.23;;
18623;SDS011;9441;51.420;7.036;2023-02-23T04:00:27;110.53;;;43.27;;
18623;SDS011;9441;51.420;7.036;2023-02-23T04:01:48;104.90;;;42.63;;
18623;SDS011;9441;51.420;7.036;2023-02-23T04:03:10;103.20;;;42.83;;
18623;SDS011;9441;51.420;7.036;2023-02-23T04:04:30;106.30;;;42.70;;
18623;SDS011;9441;51.420;7.036;2023-02-23T04:05:52;119.57;;;45.43;;
18623;SDS011;9441;51.420;7.036;2023-02-23T04:07:15;111.70;;;43.60;;
18623;SDS011;9441;51.420;7.036;2023-02-23T04:08:36;109.73;;;43.70;;
18623;SDS011;9441;51.420;7.036;2023-02-23T04:09:56;108.17;;;44.10;;
18623;SDS011;9441;51.420;7.036;2023-02-23T04:11:18;101.60;;;43.13;;
18623;SDS011;9441;51.420;7.036;2023-02-23T04:12:42;108.10;;;44.07;;
18623;SDS011;9441;51.420;7.036;2023-02-23T04:14:07;111.77;;;43.97;;
18623;SDS011;9441;51.420;7.036;2023-02-23T04:15:12;111.43;;;45.13;;
18623;SDS011;9441;51.420;7.036;2023-02-23T04:16:14;111.87;;;45.73;;
18623;SDS011;9441;51.420;7.036;2023-02-23T04:17:16;113.57;;;45.67;;
18623;SDS011;9441;51.420;7.036;2023-02-23T04:18:25;110.03;;;44.70;;
18623;SDS011;9441;51.420;7.036;2023-02-23T04:19:27;110.27;;;44.60;;
18623;SDS011;9441;51.420;7.036;2023-02-23T04:20:29;111.10;;;46.20;;
18623;SDS011;9441;51.420;7.036;2023-02-23T04:21:31;120.07;;;46.63;;
18623;SDS011;9441;51.420;7.036;2023-02-23T04:22:33;115.97;;;46.17;;
18623;SDS011;9441;51.420;7.036;2023-02-23T04:23:35;114.70;;;46.27;;
18623;SDS011;9441;51.420;7.036;2023-02-23T04:24:39;102.53;;;42.97;;
18623;SDS011;9441;51.420;7.036;2023-02-23T04:25:41;101.43;;;42.33;;
18623;SDS011;9441;51.420;7.036;2023-02-23T04:26:45;110.73;;;44.67;;
18623;SDS011;9441;51.420;7.036;2023-02-23T04:27:46;118.90;;;46.67;;
18623;SDS011;9441;51.420;7.036;2023-02-23T04:28:48;108.60;;;44.83;;
18623;SDS011;9441;51.420;7.036;2023-02-23T04:29:49;115.83;;;46.50;;
18623;SDS011;9441;51.420;7.036;2023-02-23T04:30:52;113.47;;;44.17;;
18623;SDS011;9441;51.420;7.036;2023-02-23T04:31:53;114.80;;;46.67;;
18623;SDS011;9441;51.420;7.036;2023-02-23T04:32:55;106.47;;;44.90;;
18623;SDS011;9441;51.420;7.036;2023-02-23T04:33:58;115.27;;;45.50;;
18623;SDS011;9441;51.420;7.036;2023-02-23T04:35:00;113.80;;;45.93;;
18623;SDS011;9441;51.420;7.036;2023-02-23T04:36:02;118.37;;;47.07;;
18623;SDS011;9441;51.420;7.036;2023-02-23T04:37:04;111.67;;;44.60;;
18623;SDS011;9441;51.420;7.036;2023-02-23T04:38:07;99.13;;;41.90;;
18623;SDS011;9441;51.420;7.036;2023-02-23T04:39:08;112.73;;;44.97;;
18623;SDS011;9441;51.420;7.036;2023-02-23T04:40:11;107.97;;;44.87;;
18623;SDS011;9441;51.420;7.036;2023-02-23T04:41:12;113.20;;;45.50;;
18623;SDS011;9441;51.420;7.036;2023-02-23T04:42:16;109.37;;;44.50;;
18623;SDS011;9441;51.420;7.036;2023-02-23T04:43:17;102.87;;;43.77;;
18623;SDS011;9441;51.420;7.036;2023-02-23T04:44:19;105.10;;;44.03;;
18623;SDS011;9441;51.420;7.036;2023-02-23T04:45:21;105.40;;;43.33;;
18623;SDS011;9441;51.420;7.036;2023-02-23T04:46:24;110.00;;;44.40;;
18623;SDS011;9441;51.420;7.036;2023-02-23T04:47:25;108.10;;;44.77;;
18623;SDS011;9441;51.420;7.036;2023-02-23T04:48:28;106.50;;;43.20;;
18623;SDS011;9441;51.420;7.036;2023-02-23T04:49:29;107.03;;;44.17;;
18623;SDS011;9441;51.420;7.036;2023-02-23T04:50:32;111.97;;;44.20;;
18623;SDS011;9441;51.420;7.036;2023-02-23T04:51:33;104.57;;;44.90;;
18623;SDS011;9441;51.420;7.036;2023-02-23T04:52:36;111.03;;;43.60;;
18623;SDS011;9441;51.420;7.036;2023-02-23T04:53:38;110.33;;;45.20;;
18623;SDS011;9441;51.420;7.036;2023-02-23T04:54:40;96.23;;;41.23;;
18623;SDS011;9441;51.420;7.036;2023-02-23T04:55:42;110.83;;;42.00;;
18623;SDS011;9441;51.420;7.036;2023-02-23T04:56:45;102.87;;;42.20;;
18623;SDS011;9441;51.420;7.036;2023-02-23T04:57:48;104.03;;;41.57;;
18623;SDS011;9441;51.420;7.036;2023-02-23T04:58:50;104.13;;;43.70;;
18623;SDS011;9441;51.420;7.036;2023-02-23T04:59:52;109.17;;;44.43;;
18623;SDS011;9441;51.420;7.036;2023-02-23T05:00:54;116.13;;;44.93;;
18623;SDS011;9441;51.420;7.036;2023-02-23T05:01:57;109.37;;;44.83;;
18623;SDS011;9441;51.420;7.036;2023-02-23T05:02:59;103.37;;;43.10;;
18623;SDS011;9441;51.420;7.036;2023-02-23T05:04:01;118.37;;;45.10;;
18623;SDS011;9441;51.420;7.036;2023-02-23T05:05:04;100.90;;;43.83;;
18623;SDS011;9441;51.420;7.036;2023-02-23T05:06:06;111.40;;;44.47;;
18623;SDS011;9441;51.420;7.036;2023-02-23T05:07:09;108.27;;;44.63;;
18623;SDS011;9441;51.420;7.036;2023-02-23T05:08:10;115.17;;;45.27;;
18623;SDS011;9441;51.420;7.036;2023-02-23T05:09:12;116.53;;;45.30;;
18623;SDS011;9441;51.420;7.036;2023-02-23T05:10:13;103.63;;;43.17;;
18623;SDS011;9441;51.420;7.036;2023-02-23T05:11:16;108.57;;;43.90;;
18623;SDS011;9441;51.420;7.036;2023-02-23T05:12:17;107.57;;;44.67;;
18623;SDS011;9441;51.420;7.036;2023-02-23T05:13:21;118.73;;;44.97;;
18623;SDS011;9441;51.420;7.036;2023-02-23T05:14:24;114.87;;;45.63;;
18623;SDS011;9441;51.420;7.036;2023-02-23T05:15:25;124.07;;;46.60;;
18623;SDS011;9441;51.420;7.036;2023-02-23T05:16:27;109.83;;;43.70;;
18623;SDS011;9441;51.420;7.036;2023-02-23T05:17:29;111.30;;;44.50;;
18623;SDS011;9441;51.420;7.036;2023-02-23T05:18:31;118.93;;;45.27;;
18623;SDS011;9441;51.420;7.036;2023-02-23T05:19:32;110.83;;;43.20;;
18623;SDS011;9441;51.420;7.036;2023-02-23T05:20:35;105.73;;;44.50;;
18623;SDS011;9441;51.420;7.036;2023-02-23T05:21:36;119.60;;;46.07;;
18623;SDS011;9441;51.420;7.036;2023-02-23T05:22:40;120.83;;;45.30;;
18623;SDS011;9441;51.420;7.036;2023-02-23T05:23:42;139.57;;;47.50;;
18623;SDS011;9441;51.420;7.036;2023-02-23T05:24:44;135.40;;;48.23;;
18623;SDS011;9441;51.420;7.036;2023-02-23T05:25:45;139.53;;;47.57;;
18623;SDS011;9441;51.420;7.036;2023-02-23T05:26:48;141.53;;;49.40;;
18623;SDS011;9441;51.420;7.036;2023-02-23T05:27:49;131.30;;;48.20;;
18623;SDS011;9441;51.420;7.036;2023-02-23T05:28:53;143.73;;;49.23;;
18623;SDS011;9441;51.420;7.036;2023-02-23T05:29:55;144.53;;;49.67;;
18623;SDS011;9441;51.420;7.036;2023-02-23T05:30:57;148.33;;;48.80;;
18623;SDS011;9441;51.420;7.036;2023-02-23T05:31:58;148.40;;;49.47;;
18623;SDS011;9441;51.420;7.036;2023-02-23T05:33:01;143.40;;;48.53;;
18623;SDS011;9441;51.420;7.036;2023-02-23T05:34:02;144.10;;;49.23;;
18623;SDS011;9441;51.420;7.036;2023-02-23T05:35:05;143.53;;;49.93;;
18623;SDS011;9441;51.420;7.036;2023-02-23T05:36:07;141.33;;;50.03;;
18623;SDS011;9441;51.420;7.036;2023-02-23T05:37:10;147.47;;;49.30;;
18623;SDS011;9441;51.420;7.036;2023-02-23T05:38:11;133.87;;;46.63;;
18623;SDS011;9441;51.420;7.036;2023-02-23T05:39:14;142.27;;;49.93;;
18623;SDS011;9441;51.420;7.036;2023-02-23T05:40:15;154.33;;;52.93;;
18623;SDS011;9441;51.420;7.036;2023-02-23T05:41:18;162.23;;;52.43;;
18623;SDS011;9441;51.420;7.036;2023-02-23T05:42:20;148.07;;;52.63;;
18623;SDS011;9441;51.420;7.036;2023-02-23T05:43:22;158.67;;;52.97;;
18623;SDS011;9441;51.420;7.036;2023-02-23T05:44:25;147.53;;;52.10;;
18623;SDS011;9441;51.420;7.036;2023-02-23T05:45:27;161.00;;;52.50;;
18623;SDS011;9441;51.420;7.036;2023-02-23T05:46:30;152.30;;;52.47;;
18623;SDS011;9441;51.420;7.036;2023-02-23T05:47:33;156.80;;;54.00;;
18623;SDS011;9441;51.420;7.036;2023-02-23T05:48:37;168.87;;;54.33;;
18623;SDS011;9441;51.420;7.036;2023-02-23T05:49:40;158.83;;;53.70;;
18623;SDS011;9441;51.420;7.036;2023-02-23T05:50:43;165.40;;;53.83;;
18623;SDS011;9441;51.420;7.036;2023-02-23T05:51:45;155.30;;;53.17;;
18623;SDS011;9441;51.420;7.036;2023-02-23T05:52:47;156.30;;;51.63;;
18623;SDS011;9441;51.420;7.036;2023-02-23T05:53:48;160.23;;;53.77;;
18623;SDS011;9441;51.420;7.036;2023-02-23T05:54:51;178.17;;;56.40;;
18623;SDS011;9441;51.420;7.036;2023-02-23T05:55:52;170.03;;;55.53;;
18623;SDS011;9441;51.420;7.036;2023-02-23T05:56:54;173.93;;;55.80;;
18623;SDS011;9441;51.420;7.036;2023-02-23T05:57:56;155.50;;;54.60;;
18623;SDS011;9441;51.420;7.036;2023-02-23T05:58:58;160.73;;;55.00;;
18623;SDS011;9441;51.420;7.036;2023-02-23T06:00:04;157.23;;;54.40;;
18623;SDS011;9441;51.420;7.036;2023-02-23T06:01:06;170.07;;;55.97;;
18623;SDS011;9441;51.420;7.036;2023-02-23T06:02:07;166.67;;;54.77;;
18623;SDS011;9441;51.420;7.036;2023-02-23T06:03:10;161.50;;;53.07;;
18623;SDS011;9441;51.420;7.036;2023-02-23T06:04:12;163.80;;;53.87;;
18623;SDS011;9441;51.420;7.036;2023-02-23T06:05:13;162.23;;;53.23;;
18623;SDS011;9441;51.420;7.036;2023-02-23T06:06:16;165.70;;;53.17;;
18623;SDS011;9441;51.420;7.036;2023-02-23T06:07:17;142.80;;;50.10;;
18623;SDS011;9441;51.420;7.036;2023-02-23T06:08:20;147.20;;;50.57;;
18623;SDS011;9441;51.420;7.036;2023-02-23T06:09:21;148.20;;;50.33;;
18623;SDS011;9441;51.420;7.036;2023-02-23T06:10:24;133.63;;;48.80;;
18623;SDS011;9441;51.420;7.036;2023-02-23T06:11:25;160.67;;;52.33;;
18623;SDS011;9441;51.420;7.036;2023-02-23T06:12:27;147.43;;;51.03;;
18623;SDS011;9441;51.420;7.036;2023-02-23T06:13:29;138.23;;;49.27;;
18623;SDS011;9441;51.420;7.036;2023-02-23T06:14:31;135.27;;;48.80;;
18623;SDS011;9441;51.420;7.036;2023-02-23T06:15:35;127.67;;;47.17;;
18623;SDS011;9441;51.420;7.036;2023-02-23T06:16:37;129.47;;;46.90;;
18623;SDS011;9441;51.420;7.036;2023-02-23T06:17:39;132.03;;;47.27;;
18623;SDS011;9441;51.420;7.036;2023-02-23T06:18:41;150.33;;;49.53;;
18623;SDS011;9441;51.420;7.036;2023-02-23T06:19:42;139.30;;;49.30;;
18623;SDS011;9441;51.420;7.036;2023-02-23T06:20:44;139.33;;;48.60;;
18623;SDS011;9441;51.420;7.036;2023-02-23T06:21:46;139.97;;;50.20;;
18623;SDS011;9441;51.420;7.036;2023-02-23T06:22:48;138.03;;;49.07;;
18623;SDS011;9441;51.420;7.036;2023-02-23T06:23:50;148.13;;;50.40;;
18623;SDS011;9441;51.420;7.036;2023-02-23T06:24:53;137.83;;;49.37;;
18623;SDS011;9441;51.420;7.036;2023-02-23T06:25:54;152.33;;;51.23;;
18623;SDS011;9441;51.420;7.036;2023-02-23T06:26:57;125.00;;;43.30;;
18623;SDS011;9441;51.420;7.036;2023-02-23T06:28:00;141.30;;;48.70;;
18623;SDS011;9441;51.420;7.036;2023-02-23T06:29:01;139.57;;;48.13;;
18623;SDS011;9441;51.420;7.036;2023-02-23T06:30:04;140.33;;;48.47;;
18623;SDS011;9441;51.420;7.036;2023-02-23T06:31:06;146.13;;;48.50;;
18623;SDS011;9441;51.420;7.036;2023-02-23T06:32:09;145.40;;;49.00;;
18623;SDS011;9441;51.420;7.036;2023-02-23T06:33:18;154.00;;;50.40;;
18623;SDS011;9441;51.420;7.036;2023-02-23T06:34:21;142.63;;;49.77;;
18623;SDS011;9441;51.420;7.036;2023-02-23T06:35:23;135.87;;;48.97;;
18623;SDS011;9441;51.420;7.036;2023-02-23T06:36:25;147.77;;;51.07;;
18623;SDS011;9441;51.420;7.036;2023-02-23T06:37:27;147.70;;;50.80;;
18623;SDS011;9441;51.420;7.036;2023-02-23T06:38:28;150.90;;;51.40;;
18623;SDS011;9441;51.420;7.036;2023-02-23T06:39:31;150.57;;;50.20;;